createdAt,value
2022-08-19T00:01:28.559Z,80.08
2022-08-19T00:04:00.817Z,81.10
2022-08-19T00:06:29.165Z,81.36
2022-08-19T00:08:56.645Z,81.82
2022-08-19T00:11:26.033Z,82.05
2022-08-19T00:13:53.660Z,82.26
2022-08-19T00:16:25.194Z,82.45
2022-08-19T00:18:54.503Z,83.02
2022-08-19T00:21:21.075Z,82.34
2022-08-19T00:23:47.742Z,83.07
2022-08-19T00:26:15.115Z,82.99
2022-08-19T00:28:42.170Z,82.99
2022-08-19T00:31:11.887Z,81.73
2022-08-19T00:33:39.090Z,82.18
2022-08-19T00:36:07.832Z,82.26
2022-08-19T00:38:37.535Z,80.75
2022-08-19T00:41:06.125Z,81.42
2022-08-19T00:43:32.787Z,82.31
2022-08-19T00:45:59.301Z,82.67
2022-08-19T00:48:26.078Z,82.39
2022-08-19T00:50:55.312Z,82.97
2022-08-19T00:56:11.802Z,83.74
2022-08-19T00:58:38.411Z,83.77
2022-08-19T01:01:06.381Z,83.49
2022-08-19T01:03:57.207Z,83.61
2022-08-19T01:06:21.117Z,84.03
2022-08-19T01:08:47.630Z,84.00
2022-08-19T01:11:17.488Z,83.82
2022-08-19T01:13:48.885Z,82.59
2022-08-19T01:16:18.224Z,83.38
2022-08-19T01:18:44.818Z,83.62
2022-08-19T01:21:23.763Z,82.20
2022-08-19T01:23:50.275Z,82.06
2022-08-19T01:26:21.112Z,81.16
2022-08-19T01:28:49.682Z,81.27
2022-08-19T01:31:28.460Z,81.70
2022-08-19T01:33:57.946Z,81.37
2022-08-19T01:36:32.241Z,81.17
2022-08-19T01:39:05.646Z,81.15
2022-08-19T01:41:37.808Z,82.60
2022-08-19T01:44:18.120Z,83.82
2022-08-19T01:46:50.765Z,83.64
2022-08-19T01:49:24.510Z,85.84
2022-08-19T01:52:50.411Z,86.15
2022-08-19T01:54:54.954Z,85.53
2022-08-19T01:57:24.037Z,84.86
2022-08-19T01:59:56.742Z,83.65
2022-08-19T02:02:28.229Z,83.22
2022-08-19T02:05:03.076Z,82.22
2022-08-19T02:07:37.999Z,82.29
2022-08-19T02:10:19.277Z,84.16
2022-08-19T02:12:46.166Z,84.08
2022-08-19T02:15:14.857Z,84.44
2022-08-19T02:17:41.933Z,83.97
2022-08-19T02:20:14.168Z,84.24
2022-08-19T02:22:57.611Z,83.50
2022-08-19T02:25:24.518Z,81.94
2022-08-19T02:27:51.180Z,81.99
2022-08-19T02:30:20.550Z,82.05
2022-08-19T02:32:47.627Z,83.99
2022-08-19T02:35:22.487Z,84.25
2022-08-19T02:38:09.800Z,84.73
2022-08-19T02:40:39.894Z,83.94
2022-08-19T02:43:33.630Z,84.71
2022-08-19T02:46:41.595Z,83.38
2022-08-19T02:49:34.573Z,83.42
2022-08-19T02:52:16.954Z,81.77
2022-08-19T02:55:23.882Z,82.71
2022-08-19T02:58:28.244Z,82.75
2022-08-19T03:01:45.810Z,83.09
2022-08-19T03:05:48.084Z,82.37
2022-08-19T03:10:56.306Z,83.10
2022-08-19T03:13:26.781Z,82.58
2022-08-19T03:16:15.956Z,83.36
2022-08-19T03:18:45.073Z,83.69
2022-08-19T03:21:19.371Z,83.63
2022-08-19T03:23:52.399Z,82.92
2022-08-19T03:26:19.212Z,83.22
2022-08-19T03:28:57.983Z,82.09
2022-08-19T03:31:55.943Z,82.21
2022-08-19T03:34:40.183Z,82.95
2022-08-19T03:37:14.128Z,83.47
2022-08-19T03:39:50.775Z,83.22
2022-08-19T03:42:45.398Z,84.33
2022-08-19T03:45:23.579Z,84.92
2022-08-19T03:48:11.627Z,85.46
2022-08-19T03:50:52.667Z,84.35
2022-08-19T03:53:31.221Z,83.78
2022-08-19T03:56:38.601Z,84.04
2022-08-19T03:59:14.347Z,84.34
2022-08-19T04:04:24.240Z,84.62
2022-08-19T04:06:56.475Z,85.36
2022-08-19T04:09:25.197Z,85.19
2022-08-19T04:11:56.814Z,84.42
2022-08-19T04:14:26.130Z,84.45
2022-08-19T04:16:56.361Z,84.41
2022-08-19T04:19:24.018Z,84.31
2022-08-19T04:24:35.022Z,83.01
2022-08-19T04:27:07.713Z,81.11
2022-08-19T04:29:34.474Z,81.12
2022-08-19T04:32:08.939Z,81.25
2022-08-19T04:34:36.428Z,80.93
2022-08-19T04:37:22.971Z,80.82
2022-08-19T04:40:08.007Z,81.04
2022-08-19T04:42:40.118Z,80.90
2022-08-19T04:45:14.652Z,80.40
2022-08-19T04:47:46.962Z,81.81
2022-08-19T04:50:20.083Z,81.28
2022-08-19T04:52:47.428Z,81.98
2022-08-19T04:55:20.784Z,82.85
2022-08-19T04:57:54.668Z,83.25
2022-08-19T05:00:21.206Z,79.64
2022-08-19T05:02:50.353Z,78.96
2022-08-19T05:05:17.076Z,80.63
2022-08-19T05:07:43.893Z,81.33
2022-08-19T05:10:10.826Z,82.95
2022-08-19T05:12:37.841Z,81.54
2022-08-19T05:15:05.524Z,83.89
2022-08-19T05:17:36.276Z,83.87
2022-08-19T05:20:26.115Z,83.42
2022-08-19T05:22:53.437Z,82.25
2022-08-19T05:25:21.446Z,82.23
2022-08-19T05:27:48.600Z,82.09
2022-08-19T05:30:15.719Z,79.92
2022-08-19T05:32:42.835Z,79.16
2022-08-19T05:35:12.118Z,80.16
2022-08-19T05:37:40.951Z,78.30
2022-08-19T05:40:08.573Z,76.06
2022-08-19T05:42:35.138Z,76.34
2022-08-19T05:45:01.719Z,74.10
2022-08-19T05:47:28.357Z,76.06
2022-08-19T05:49:57.439Z,75.36
2022-08-19T05:52:25.576Z,75.76
2022-08-19T05:54:55.982Z,74.14
2022-08-19T05:57:23.739Z,73.63
2022-08-19T05:59:53.097Z,71.95
2022-08-19T06:02:25.962Z,71.69
2022-08-19T06:04:56.422Z,72.21
2022-08-19T06:07:23.146Z,71.36
2022-08-19T06:09:58.995Z,70.61
2022-08-19T06:12:29.867Z,71.72
2022-08-19T06:15:00.767Z,72.30
2022-08-19T06:17:30.126Z,72.38
2022-08-19T06:19:57.197Z,71.97
2022-08-19T06:22:23.899Z,72.39
2022-08-19T06:24:53.641Z,71.31
2022-08-19T06:27:22.949Z,70.77
2022-08-19T06:29:49.747Z,70.69
2022-08-19T06:32:17.726Z,70.97
2022-08-19T06:34:45.928Z,70.37
2022-08-19T06:37:13.309Z,70.19
2022-08-19T06:39:41.694Z,69.59
2022-08-19T06:42:13.990Z,68.84
2022-08-19T06:44:43.218Z,67.00
2022-08-19T06:47:14.672Z,66.12
2022-08-19T06:49:42.540Z,66.29
2022-08-19T06:52:13.670Z,65.22
2022-08-19T06:54:56.044Z,65.26
2022-08-19T06:57:25.265Z,63.23
2022-08-19T06:59:52.131Z,64.20
2022-08-19T07:02:19.702Z,62.72
2022-08-19T07:04:46.252Z,63.89
2022-08-19T07:07:21.005Z,63.40
2022-08-19T07:09:57.947Z,63.40
2022-08-19T07:12:30.225Z,63.78
2022-08-19T07:14:58.685Z,63.32
2022-08-19T07:17:25.856Z,63.38
2022-08-19T07:19:54.404Z,62.34
2022-08-19T07:22:24.175Z,62.83
2022-08-19T07:24:52.005Z,62.59
2022-08-19T07:27:24.126Z,63.10
2022-08-19T07:29:55.867Z,61.93
2022-08-19T07:32:24.005Z,61.46
2022-08-19T07:34:50.576Z,61.43
2022-08-19T07:37:17.378Z,61.40
2022-08-19T07:39:44.180Z,61.47
2022-08-19T07:42:14.659Z,60.67
2022-08-19T07:44:42.190Z,59.91
2022-08-19T07:47:49.810Z,60.01
2022-08-19T07:50:07.890Z,60.08
2022-08-19T07:52:35.803Z,58.72
2022-08-19T07:55:04.918Z,58.83
2022-08-19T07:57:32.739Z,58.63
2022-08-19T07:59:59.864Z,58.07
2022-08-19T08:02:26.469Z,57.40
2022-08-19T08:05:11.597Z,57.28
2022-08-19T08:07:56.959Z,56.74
2022-08-19T08:10:24.254Z,55.59
2022-08-19T08:13:09.408Z,55.39
2022-08-19T08:15:42.737Z,54.97
2022-08-19T08:18:10.793Z,53.24
2022-08-19T08:20:37.452Z,53.52
2022-08-19T08:23:22.863Z,54.35
2022-08-19T08:25:50.170Z,53.61
2022-08-19T08:28:18.070Z,54.58
2022-08-19T08:30:49.047Z,55.77
2022-08-19T08:33:30.154Z,55.49
2022-08-19T08:36:01.644Z,53.43
2022-08-19T08:38:36.928Z,54.24
2022-08-19T08:41:18.807Z,52.54
2022-08-19T08:43:49.170Z,51.61
2022-08-19T08:46:42.487Z,51.02
2022-08-19T08:49:21.442Z,51.23
2022-08-19T08:52:00.084Z,51.51
2022-08-19T08:54:32.535Z,50.52
2022-08-19T08:57:01.751Z,51.15
2022-08-19T08:59:36.228Z,48.96
2022-08-19T09:02:02.819Z,49.37
2022-08-19T09:04:30.171Z,48.11
2022-08-19T09:07:33.869Z,47.85
2022-08-19T09:10:12.956Z,47.85
2022-08-19T09:12:55.134Z,47.11
2022-08-19T09:15:33.485Z,47.13
2022-08-19T09:18:07.112Z,46.34
2022-08-19T09:20:35.104Z,46.88
2022-08-19T09:23:01.875Z,45.47
2022-08-19T09:25:29.526Z,46.36
2022-08-19T09:27:57.934Z,46.68
2022-08-19T09:30:31.973Z,46.61
2022-08-19T09:32:58.800Z,45.77
2022-08-19T09:35:28.339Z,45.75
2022-08-19T09:37:57.667Z,45.70
2022-08-19T09:40:28.083Z,45.63
2022-08-19T09:42:58.184Z,45.89
2022-08-19T09:45:25.006Z,44.59
2022-08-19T09:47:54.117Z,44.51
2022-08-19T09:50:21.854Z,44.15
2022-08-19T09:52:55.206Z,44.36
2022-08-19T09:55:24.183Z,42.75
2022-08-19T09:57:50.842Z,42.98
2022-08-19T10:00:18.760Z,42.98
2022-08-19T10:02:45.790Z,44.05
2022-08-19T10:05:31.382Z,42.90
2022-08-19T10:07:58.395Z,42.35
2022-08-19T10:10:25.106Z,41.69
2022-08-19T10:12:51.946Z,41.35
2022-08-19T10:15:29.211Z,41.42
2022-08-19T10:17:56.526Z,41.39
2022-08-19T10:20:25.536Z,42.08
2022-08-19T10:22:52.082Z,41.26
2022-08-19T10:25:20.159Z,41.20
2022-08-19T10:27:48.394Z,40.96
2022-08-19T10:30:18.167Z,41.85
2022-08-19T10:32:46.932Z,42.40
2022-08-19T10:35:14.525Z,42.36
2022-08-19T10:37:56.707Z,42.24
2022-08-19T10:40:24.421Z,41.29
2022-08-19T10:42:51.028Z,41.52
2022-08-19T10:45:17.977Z,41.54
2022-08-19T10:47:44.515Z,41.90
2022-08-19T10:50:30.088Z,40.55
2022-08-19T10:52:56.775Z,39.79
2022-08-19T10:55:43.718Z,40.20
2022-08-19T10:58:15.164Z,40.00
2022-08-19T11:00:44.072Z,39.28
2022-08-19T11:03:11.165Z,40.44
2022-08-19T11:05:39.747Z,42.27
2022-08-19T11:08:21.221Z,40.71
2022-08-19T11:10:50.563Z,41.47
2022-08-19T11:13:17.220Z,41.65
2022-08-19T11:15:45.058Z,41.74
2022-08-19T11:18:13.513Z,41.23
2022-08-19T11:20:40.268Z,39.94
2022-08-19T11:23:07.408Z,39.52
2022-08-19T11:25:34.342Z,40.39
2022-08-19T11:28:00.864Z,40.62
2022-08-19T11:30:28.980Z,40.09
2022-08-19T11:32:55.751Z,39.47
2022-08-19T11:35:24.368Z,39.55
2022-08-19T11:37:50.930Z,39.67
2022-08-19T11:40:19.033Z,39.22
2022-08-19T11:42:57.200Z,40.15
2022-08-19T11:45:25.597Z,40.89
2022-08-19T11:47:52.117Z,41.86
2022-08-19T11:50:18.988Z,41.17
2022-08-19T11:52:46.267Z,40.46
2022-08-19T11:55:14.682Z,39.78
2022-08-19T11:57:44.736Z,39.71
2022-08-19T12:00:14.275Z,39.74
2022-08-19T12:02:41.264Z,39.23
2022-08-19T12:05:12.573Z,39.61
2022-08-19T12:07:40.761Z,39.35
2022-08-19T12:10:07.747Z,38.95
2022-08-19T12:12:35.086Z,39.43
2022-08-19T12:15:03.771Z,39.89
2022-08-19T12:17:31.878Z,39.38
2022-08-19T12:19:58.534Z,39.13
2022-08-19T12:22:25.138Z,39.23
2022-08-19T12:24:54.155Z,39.19
2022-08-19T12:27:35.678Z,39.62
2022-08-19T12:30:09.752Z,38.65
2022-08-19T12:32:36.399Z,37.96
2022-08-19T12:35:02.983Z,38.16
2022-08-19T12:37:30.628Z,37.31
2022-08-19T12:40:00.565Z,37.34
2022-08-19T12:42:27.219Z,36.97
2022-08-19T12:44:53.912Z,37.29
2022-08-19T12:47:21.394Z,36.54
2022-08-19T12:49:55.563Z,36.91
2022-08-19T12:52:26.817Z,36.22
2022-08-19T12:54:55.346Z,36.91
2022-08-19T12:57:32.454Z,38.06
2022-08-19T13:00:00.901Z,38.73
2022-08-19T13:02:38.974Z,38.60
2022-08-19T13:05:09.675Z,38.26
2022-08-19T13:07:37.119Z,37.88
2022-08-19T13:10:08.826Z,38.01
2022-08-19T13:12:39.046Z,37.15
2022-08-19T13:15:10.555Z,37.85
2022-08-19T13:17:39.062Z,38.38
2022-08-19T13:20:08.702Z,38.48
2022-08-19T13:22:37.117Z,37.81
2022-08-19T13:25:06.275Z,38.33
2022-08-19T13:27:33.112Z,38.53
2022-08-19T13:30:18.929Z,38.06
2022-08-19T13:33:09.409Z,36.72
2022-08-19T13:35:42.894Z,36.53
2022-08-19T13:38:12.135Z,36.80
2022-08-19T13:40:39.793Z,36.58
2022-08-19T13:43:23.104Z,37.45
2022-08-19T13:45:57.579Z,37.50
2022-08-19T13:48:27.294Z,37.72
2022-08-19T13:50:57.307Z,38.02
2022-08-19T13:53:24.627Z,37.45
2022-08-19T13:55:52.074Z,36.62
2022-08-19T13:58:18.576Z,37.51
2022-08-19T14:00:47.256Z,37.04
2022-08-19T14:03:14.394Z,38.08
2022-08-19T14:05:40.960Z,37.97
2022-08-19T14:08:07.600Z,37.66
2022-08-19T14:10:34.359Z,38.18
2022-08-19T14:13:03.948Z,38.08
2022-08-19T14:15:31.271Z,37.96
2022-08-19T14:17:58.481Z,38.33
2022-08-19T14:20:25.860Z,38.05
2022-08-19T14:22:54.009Z,38.55
2022-08-19T14:25:25.019Z,38.24
2022-08-19T14:27:51.932Z,38.77
2022-08-19T14:30:24.198Z,38.34
2022-08-19T14:32:50.668Z,38.61
2022-08-19T14:35:17.513Z,39.39
2022-08-19T14:37:46.129Z,39.77
2022-08-19T14:40:15.318Z,39.84
2022-08-19T14:42:42.820Z,39.27
2022-08-19T14:45:10.708Z,39.54
2022-08-19T14:47:38.286Z,39.66
2022-08-19T14:50:11.372Z,39.85
2022-08-19T14:52:45.942Z,39.92
2022-08-19T14:55:12.648Z,39.64
2022-08-19T14:57:41.797Z,39.84
2022-08-19T15:00:14.521Z,40.10
2022-08-19T15:02:42.323Z,39.85
2022-08-19T15:05:09.461Z,40.27
2022-08-19T15:07:36.192Z,40.10
2022-08-19T15:10:02.775Z,40.35
2022-08-19T15:12:29.277Z,40.48
2022-08-19T15:14:56.785Z,41.11
2022-08-19T15:17:43.449Z,41.16
2022-08-19T15:20:13.526Z,41.19
2022-08-19T15:22:41.022Z,40.88
2022-08-19T15:25:09.564Z,40.81
2022-08-19T15:27:39.783Z,41.00
2022-08-19T15:30:11.201Z,41.44
2022-08-19T15:32:38.881Z,41.54
2022-08-19T15:35:07.888Z,41.71
2022-08-19T15:37:37.437Z,41.80
2022-08-19T15:40:09.019Z,41.30
2022-08-19T15:42:36.766Z,41.50
2022-08-19T15:45:06.563Z,41.79
2022-08-19T15:47:34.810Z,42.17
2022-08-19T15:50:06.137Z,41.91
2022-08-19T15:52:34.066Z,41.92
2022-08-19T15:55:07.132Z,42.20
2022-08-19T15:57:51.911Z,41.31
2022-08-19T16:00:37.062Z,40.94
2022-08-19T16:03:22.475Z,40.93
2022-08-19T16:06:08.307Z,41.03
2022-08-19T16:08:49.029Z,40.14
2022-08-19T16:11:21.090Z,40.07
2022-08-19T16:13:51.858Z,39.98
2022-08-19T16:16:22.048Z,40.04
2022-08-19T16:18:49.389Z,40.16
2022-08-19T16:21:17.331Z,40.36
2022-08-19T16:23:46.560Z,40.51
2022-08-19T16:26:15.415Z,40.85
2022-08-19T16:28:58.333Z,41.27
2022-08-19T16:31:25.445Z,40.93
2022-08-19T16:33:52.188Z,41.26
2022-08-19T16:36:18.922Z,41.96
2022-08-19T16:38:49.384Z,41.87
2022-08-19T16:41:16.147Z,42.73
2022-08-19T16:43:42.637Z,42.22
2022-08-19T16:46:10.300Z,42.82
2022-08-19T16:48:42.861Z,42.86
2022-08-19T16:51:10.612Z,43.18
2022-08-19T16:53:38.971Z,43.44
2022-08-19T16:56:05.637Z,43.43
2022-08-19T16:58:35.323Z,43.94
2022-08-19T17:01:06.533Z,44.23
2022-08-19T17:03:36.071Z,43.89
2022-08-19T17:06:18.990Z,44.11
2022-08-19T17:09:18.227Z,44.13
2022-08-19T17:11:53.029Z,44.54
2022-08-19T17:14:20.279Z,44.39
2022-08-19T17:16:47.752Z,44.53
2022-08-19T17:19:18.020Z,44.83
2022-08-19T17:21:44.579Z,44.79
2022-08-19T17:24:11.175Z,45.04
2022-08-19T17:26:39.323Z,45.28
2022-08-19T17:29:06.299Z,45.68
2022-08-19T17:31:36.737Z,45.75
2022-08-19T17:34:07.104Z,45.85
2022-08-19T17:36:39.148Z,46.20
2022-08-19T17:39:05.803Z,46.77
2022-08-19T17:41:36.054Z,46.69
2022-08-19T17:44:04.862Z,46.81
2022-08-19T17:46:31.715Z,46.81
2022-08-19T17:48:58.312Z,47.30
2022-08-19T17:51:34.029Z,47.53
2022-08-19T17:54:01.821Z,47.22
2022-08-19T17:56:31.145Z,47.30
2022-08-19T17:59:00.687Z,47.57
2022-08-19T18:01:43.010Z,47.71
2022-08-19T18:04:17.212Z,47.89
2022-08-19T18:06:45.771Z,47.92
2022-08-19T18:09:13.883Z,48.79
2022-08-19T18:11:41.059Z,48.47
2022-08-19T18:14:07.720Z,48.60
2022-08-19T18:16:34.458Z,48.75
2022-08-19T18:19:01.216Z,48.61
2022-08-19T18:21:31.801Z,48.51
2022-08-19T18:24:01.738Z,48.56
2022-08-19T18:26:30.628Z,48.45
2022-08-19T18:28:59.312Z,48.67
2022-08-19T18:31:25.801Z,48.52
2022-08-19T18:33:55.245Z,48.67
2022-08-19T18:36:50.133Z,49.11
2022-08-19T18:39:29.243Z,49.03
2022-08-19T18:42:14.918Z,49.41
2022-08-19T18:45:00.138Z,48.84
2022-08-19T18:47:45.495Z,49.30
2022-08-19T18:50:17.772Z,49.26
2022-08-19T18:52:44.273Z,49.58
2022-08-19T18:55:10.763Z,49.61
2022-08-19T18:57:37.575Z,50.31
2022-08-19T19:00:05.494Z,50.38
2022-08-19T19:02:38.531Z,49.90
2022-08-19T19:05:07.731Z,50.22
2022-08-19T19:07:36.435Z,50.83
2022-08-19T19:10:04.404Z,50.74
2022-08-19T19:12:32.519Z,50.93
2022-08-19T19:14:59.207Z,50.85
2022-08-19T19:17:28.030Z,51.40
2022-08-19T19:19:54.539Z,51.23
2022-08-19T19:22:22.439Z,51.25
2022-08-19T19:24:50.837Z,51.54
2022-08-19T19:27:22.850Z,51.20
2022-08-19T19:29:52.764Z,51.10
2022-08-19T19:32:22.951Z,51.60
2022-08-19T19:34:49.605Z,51.60
2022-08-19T19:37:17.011Z,51.42
2022-08-19T19:39:46.365Z,51.54
2022-08-19T19:42:20.542Z,52.07
2022-08-19T19:44:50.377Z,52.22
2022-08-19T19:47:18.859Z,52.33
2022-08-19T19:52:38.364Z,51.83
2022-08-19T19:55:09.463Z,52.12
2022-08-19T19:57:39.358Z,52.18
2022-08-19T20:00:11.262Z,52.54
2022-08-19T20:02:37.849Z,52.31
2022-08-19T20:05:07.197Z,52.35
2022-08-19T20:07:53.279Z,52.63
2022-08-19T20:10:19.849Z,52.60
2022-08-19T20:12:46.334Z,52.97
2022-08-19T20:15:14.905Z,52.76
2022-08-19T20:17:42.690Z,52.90
2022-08-19T20:20:14.390Z,52.64
2022-08-19T20:22:45.839Z,52.77
2022-08-19T20:25:14.465Z,53.04
2022-08-19T20:27:43.922Z,53.18
2022-08-19T20:30:25.936Z,53.22
2022-08-19T20:32:56.484Z,53.70
2022-08-19T20:35:23.444Z,54.11
2022-08-19T20:37:53.826Z,53.80
2022-08-19T20:40:34.101Z,54.80
2022-08-19T20:43:12.385Z,54.43
2022-08-19T20:45:42.158Z,54.64
2022-08-19T20:48:10.673Z,54.76
2022-08-19T20:50:37.354Z,55.27
2022-08-19T20:53:13.314Z,55.13
2022-08-19T20:55:40.126Z,55.13
2022-08-19T20:58:07.733Z,55.16
2022-08-19T21:00:34.324Z,55.24
2022-08-19T21:03:03.891Z,55.52
2022-08-19T21:05:31.914Z,55.43
2022-08-19T21:07:58.677Z,55.18
2022-08-19T21:10:27.298Z,55.65
2022-08-19T21:13:04.599Z,55.65
2022-08-19T21:15:31.233Z,55.60
2022-08-19T21:17:58.272Z,56.19
2022-08-19T21:20:25.266Z,55.73
2022-08-19T21:22:51.819Z,55.54
2022-08-19T21:25:18.305Z,55.47
2022-08-19T21:27:44.856Z,55.29
2022-08-19T21:30:27.509Z,55.85
2022-08-19T21:33:02.045Z,55.67
2022-08-19T21:35:28.910Z,55.76
2022-08-19T21:37:55.675Z,55.59
2022-08-19T21:40:22.329Z,55.47
2022-08-19T21:42:49.090Z,55.18
2022-08-19T21:45:17.437Z,55.33
2022-08-19T21:47:44.509Z,55.70
2022-08-19T21:50:11.514Z,55.68
2022-08-19T21:52:40.193Z,55.21
2022-08-19T21:55:08.573Z,55.42
2022-08-19T21:57:35.710Z,55.60
2022-08-19T22:00:03.146Z,56.04
2022-08-19T22:02:29.611Z,56.19
2022-08-19T22:04:56.128Z,56.27
2022-08-19T22:07:22.697Z,56.49
2022-08-19T22:09:50.503Z,56.18
2022-08-19T22:12:29.075Z,55.89
2022-08-19T22:14:56.999Z,56.07
2022-08-19T22:17:23.975Z,56.11
2022-08-19T22:19:52.798Z,55.64
2022-08-19T22:22:24.088Z,55.98
2022-08-19T22:24:54.309Z,56.00
2022-08-19T22:27:21.169Z,56.16
2022-08-19T22:29:47.751Z,56.44
2022-08-19T22:32:28.046Z,56.36
2022-08-19T22:34:58.142Z,56.39
2022-08-19T22:37:24.719Z,56.19
2022-08-19T22:39:51.580Z,55.87
2022-08-19T22:42:20.185Z,56.00
2022-08-19T22:44:46.784Z,55.80
2022-08-19T22:47:14.554Z,55.66
2022-08-19T22:49:41.090Z,55.76
2022-08-19T22:52:19.784Z,56.02
2022-08-19T22:54:48.391Z,55.96
2022-08-19T22:57:15.409Z,55.99
2022-08-19T22:59:42.228Z,56.08
2022-08-19T23:02:09.665Z,56.17
2022-08-19T23:04:36.271Z,56.31
2022-08-19T23:07:03.350Z,56.28
2022-08-19T23:09:30.485Z,56.71
2022-08-19T23:11:57.223Z,56.65
2022-08-19T23:14:23.689Z,57.07
2022-08-19T23:16:51.366Z,57.11
2022-08-19T23:19:21.487Z,57.03
2022-08-19T23:21:48.969Z,57.55
2022-08-19T23:24:15.661Z,57.78
2022-08-19T23:27:04.689Z,57.72
2022-08-19T23:29:50.370Z,57.99
2022-08-19T23:32:18.444Z,58.18
2022-08-19T23:34:45.282Z,58.15
2022-08-19T23:37:11.960Z,58.62
2022-08-19T23:39:38.559Z,58.56
2022-08-19T23:42:12.492Z,58.51
2022-08-19T23:44:51.960Z,59.36
2022-08-19T23:47:21.135Z,58.87
2022-08-19T23:49:48.722Z,59.31
2022-08-19T23:52:15.233Z,59.41
2022-08-19T23:54:43.687Z,59.17
2022-08-19T23:57:13.422Z,59.56
2022-08-19T23:59:42.517Z,59.71
